Time;durP1;ratioP1;P1;durP2;ratioP2;P2;SDS_P1;SDS_P2;PMS_P1;PMS_P2;Temp;Humidity;BMP_temperature;BMP_pressure;BME280_temperature;BME280_humidity;BME280_pressure;Samples;Min_cycle;Max_cycle;Signal;HPM_P1;HPM_P2
2023/01/08 00:02:00;;;;;;;5.50;1.25;;;9.10;99.90;;;;;;5044172;28;20580;-72
2023/01/08 00:04:26;;;;;;;3.38;1.27;;;9.00;99.90;;;;;;5042267;28;20102;-72
2023/01/08 00:06:51;;;;;;;3.63;1.20;;;9.00;99.90;;;;;;5044855;28;20029;-72
2023/01/08 00:09:17;;;;;;;4.78;1.15;;;9.00;99.90;;;;;;5052758;28;20055;-72
2023/01/08 00:11:43;;;;;;;6.55;1.70;;;9.00;99.90;;;;;;5053374;28;20033;-72
2023/01/08 00:14:09;;;;;;;7.55;1.83;;;9.00;99.90;;;;;;5052911;28;20032;-73
2023/01/08 00:16:35;;;;;;;5.40;2.47;;;9.00;99.90;;;;;;5052962;28;20075;-71
2023/01/08 00:19:01;;;;;;;5.93;1.70;;;8.90;99.90;;;;;;5053333;28;20473;-72
2023/01/08 00:21:27;;;;;;;5.32;2.13;;;8.90;99.90;;;;;;5053239;28;20045;-72
2023/01/08 00:23:53;;;;;;;6.43;1.98;;;8.90;99.90;;;;;;5051984;28;20060;-73
2023/01/08 00:26:19;;;;;;;8.23;3.00;;;8.90;99.90;;;;;;5052985;28;20049;-72
2023/01/08 00:28:44;;;;;;;6.40;2.70;;;9.00;99.90;;;;;;5052773;28;20029;-72
2023/01/08 00:31:11;;;;;;;6.13;2.97;;;9.00;99.90;;;;;;5051846;28;20061;-71
2023/01/08 00:33:38;;;;;;;5.65;3.00;;;9.00;99.90;;;;;;5052898;28;20025;-72
2023/01/08 00:36:09;;;;;;;6.72;3.05;;;9.10;99.90;;;;;;5052221;28;20423;-71
2023/01/08 00:38:36;;;;;;;11.10;4.18;;;9.10;99.90;;;;;;5052668;28;20025;-71
2023/01/08 00:41:01;;;;;;;6.57;3.05;;;9.10;99.90;;;;;;5038543;28;20067;-72
2023/01/08 00:43:27;;;;;;;9.50;3.22;;;9.10;99.90;;;;;;5052572;28;20126;-72
2023/01/08 00:45:52;;;;;;;7.53;3.45;;;9.20;99.90;;;;;;5052488;28;20036;-71
2023/01/08 00:48:21;;;;;;;9.90;3.10;;;9.20;99.90;;;;;;5053103;28;20449;-72
2023/01/08 00:50:47;;;;;;;8.20;3.30;;;9.30;99.90;;;;;;5051835;28;20033;-72
2023/01/08 00:53:12;;;;;;;7.68;2.75;;;9.30;99.90;;;;;;5052040;28;20024;-73
2023/01/08 00:55:38;;;;;;;6.30;2.67;;;9.40;99.90;;;;;;5052389;28;20135;-71
2023/01/08 00:58:03;;;;;;;10.23;3.17;;;9.40;99.90;;;;;;5051669;28;20017;-71
2023/01/08 01:00:29;;;;;;;5.07;2.45;;;9.50;99.90;;;;;;5052500;28;20082;-71
2023/01/08 01:02:54;;;;;;;8.35;2.22;;;9.60;99.90;;;;;;5052195;28;20033;-71
2023/01/08 01:05:20;;;;;;;10.25;2.15;;;9.60;99.90;;;;;;5043212;28;20029;-72
2023/01/08 01:07:46;;;;;;;4.20;2.00;;;9.60;99.90;;;;;;5046939;28;20031;-72
2023/01/08 01:10:13;;;;;;;7.10;2.47;;;9.40;99.90;;;;;;5052002;28;20025;-72
2023/01/08 01:12:40;;;;;;;3.13;1.15;;;9.50;99.90;;;;;;5051632;28;20021;-71
2023/01/08 01:15:07;;;;;;;3.10;1.20;;;9.60;99.90;;;;;;5051885;28;20389;-73
2023/01/08 01:17:34;;;;;;;3.33;1.00;;;9.50;99.90;;;;;;5052145;28;20051;-71
2023/01/08 01:20:00;;;;;;;7.18;1.58;;;9.50;99.90;;;;;;5050860;28;20380;-72
2023/01/08 01:22:25;;;;;;;5.53;1.23;;;9.40;99.90;;;;;;5052174;28;20033;-71
2023/01/08 01:24:51;;;;;;;4.45;1.35;;;9.30;99.90;;;;;;5052066;28;20527;-72
2023/01/08 01:27:17;;;;;;;2.13;1.25;;;9.30;99.90;;;;;;5051388;28;20021;-71
2023/01/08 01:29:42;;;;;;;4.10;1.25;;;9.30;99.90;;;;;;5052146;28;20111;-72
2023/01/08 01:32:08;;;;;;;1.60;1.20;;;9.20;99.90;;;;;;5051658;28;20017;-71
2023/01/08 01:34:34;;;;;;;5.53;1.13;;;9.20;99.90;;;;;;5051235;28;20021;-72
2023/01/08 01:36:59;;;;;;;3.90;1.52;;;9.10;99.90;;;;;;5051515;28;20025;-72
2023/01/08 01:39:25;;;;;;;5.50;0.90;;;9.00;99.90;;;;;;5051104;28;20032;-71
2023/01/08 01:41:52;;;;;;;6.85;0.98;;;9.00;99.90;;;;;;5051879;28;20475;-72
2023/01/08 01:44:39;;;;;;;2.70;0.93;;;9.00;99.90;;;;;;5052015;28;20029;-72
2023/01/08 01:47:15;;;;;;;1.83;0.80;;;9.00;99.90;;;;;;5051182;28;20381;-72
2023/01/08 01:49:52;;;;;;;2.78;1.20;;;9.00;99.90;;;;;;5052235;28;20025;-71
2023/01/08 01:52:21;;;;;;;3.70;1.02;;;9.00;99.90;;;;;;5052423;28;20029;-71
2023/01/08 01:54:48;;;;;;;2.63;1.00;;;9.10;99.90;;;;;;5051165;28;20021;-71
2023/01/08 01:57:14;;;;;;;1.33;0.80;;;9.00;99.90;;;;;;5051513;28;20025;-72
2023/01/08 01:59:40;;;;;;;2.20;1.17;;;8.90;99.90;;;;;;5051917;28;20496;-72
2023/01/08 02:02:06;;;;;;;4.47;1.05;;;8.90;99.90;;;;;;5051059;28;20489;-72
2023/01/08 02:04:32;;;;;;;3.53;1.48;;;9.00;99.90;;;;;;5051640;28;20021;-72
2023/01/08 02:07:11;;;;;;;2.17;1.30;;;9.00;99.90;;;;;;5051607;28;20531;-72
2023/01/08 02:10:12;;;;;;;2.97;1.20;;;9.10;99.90;;;;;;5051160;28;20060;-71
2023/01/08 02:12:41;;;;;;;;;;;9.00;99.90;;;;;;5051374;28;20033;-72
2023/01/08 02:15:22;;;;;;;1.90;1.15;;;9.10;99.90;;;;;;5051266;28;19911;-71
2023/01/08 02:17:59;;;;;;;1.92;1.00;;;9.00;99.90;;;;;;5052471;28;20032;-72
2023/01/08 02:20:28;;;;;;;2.55;1.48;;;9.10;99.90;;;;;;5038652;28;20163;-71
2023/01/08 02:23:28;;;;;;;3.33;1.75;;;9.10;99.90;;;;;;5049519;28;20554;-71
2023/01/08 02:26:16;;;;;;;5.82;1.60;;;9.20;99.90;;;;;;5041621;28;20427;-71
2023/01/08 02:28:48;;;;;;;6.30;1.77;;;9.60;99.90;;;;;;5050803;28;20104;-71
2023/01/08 02:31:16;;;;;;;4.50;1.52;;;9.20;99.90;;;;;;5051321;28;20064;-72
2023/01/08 02:33:42;;;;;;;4.00;1.48;;;9.20;99.90;;;;;;5052493;28;20025;-72
2023/01/08 02:36:28;;;;;;;4.20;1.80;;;9.30;99.90;;;;;;5050341;28;20028;-71
2023/01/08 02:39:24;;;;;;;6.63;1.60;;;9.30;99.90;;;;;;5051386;28;20099;-72
2023/01/08 02:42:34;;;;;;;4.32;2.50;;;9.40;99.90;;;;;;5045644;28;20052;-72
2023/01/08 02:45:37;;;;;;;3.92;1.45;;;9.40;99.90;;;;;;5041758;28;20037;-72
2023/01/08 02:48:31;;;;;;;6.03;1.40;;;9.30;99.90;;;;;;5039385;28;20089;-71
2023/01/08 02:51:25;;;;;;;4.07;1.33;;;9.30;99.90;;;;;;5051980;28;20021;-72
2023/01/08 02:53:58;;;;;;;10.35;1.52;;;9.30;99.90;;;;;;5042501;28;20043;-72
2023/01/08 02:56:29;;;;;;;5.18;1.08;;;9.30;99.90;;;;;;5038758;28;20057;-72
2023/01/08 02:58:55;;;;;;;6.70;1.50;;;9.20;99.90;;;;;;5047894;28;20381;-71
2023/01/08 03:01:22;;;;;;;7.85;1.75;;;9.20;99.90;;;;;;5042604;28;20037;-72
2023/01/08 03:04:05;;;;;;;3.88;1.40;;;9.20;99.90;;;;;;5054434;28;20496;-72
2023/01/08 03:06:31;;;;;;;4.60;1.98;;;9.20;99.90;;;;;;5043193;28;20032;-71
2023/01/08 03:08:59;;;;;;;4.50;2.03;;;9.20;99.90;;;;;;5042101;28;20021;-72
2023/01/08 03:11:31;;;;;;;5.07;1.83;;;9.30;99.90;;;;;;5041822;28;20074;-72
2023/01/08 03:14:09;;;;;;;8.57;2.10;;;9.20;99.90;;;;;;5057241;28;20072;-71
2023/01/08 03:16:46;;;;;;;6.13;1.92;;;9.20;99.90;;;;;;5047334;28;20384;-72
2023/01/08 03:19:20;;;;;;;6.35;2.30;;;9.30;99.90;;;;;;5060673;28;20025;-72
2023/01/08 03:21:47;;;;;;;5.40;2.13;;;9.30;99.90;;;;;;5057965;28;20047;-71
2023/01/08 03:24:16;;;;;;;7.32;2.55;;;9.20;99.90;;;;;;5059877;28;20465;-72
2023/01/08 03:26:44;;;;;;;8.50;2.25;;;9.30;99.90;;;;;;5059638;28;20029;-72
2023/01/08 03:29:15;;;;;;;4.57;2.33;;;9.30;99.90;;;;;;5056903;28;20056;-71
2023/01/08 03:31:42;;;;;;;8.57;2.47;;;9.30;99.90;;;;;;5053812;28;20045;-72
2023/01/08 03:34:10;;;;;;;10.95;3.83;;;9.30;99.90;;;;;;5053024;28;20021;-72
2023/01/08 03:36:39;;;;;;;3.88;2.03;;;9.40;99.90;;;;;;5053797;28;20481;-73
2023/01/08 03:39:17;;;;;;;6.00;2.10;;;9.30;99.90;;;;;;5052966;28;20025;-73
2023/01/08 03:41:43;;;;;;;3.50;2.13;;;9.30;99.90;;;;;;5053785;28;20113;-73
2023/01/08 03:44:09;;;;;;;7.00;2.30;;;9.40;99.90;;;;;;5053602;28;20025;-71
2023/01/08 03:46:43;;;;;;;6.60;1.90;;;9.40;99.90;;;;;;5053204;28;20021;-72
2023/01/08 03:49:10;;;;;;;7.22;1.85;;;9.40;99.90;;;;;;5053651;28;20355;-72
2023/01/08 03:51:43;;;;;;;8.75;1.98;;;9.50;99.90;;;;;;5053810;28;20025;-72
2023/01/08 03:54:16;;;;;;;6.63;1.80;;;9.40;99.90;;;;;;5052894;28;20048;-72
2023/01/08 03:56:42;;;;;;;3.17;2.08;;;9.40;99.90;;;;;;5053502;28;20024;-72
2023/01/08 03:59:09;;;;;;;4.07;1.85;;;9.40;99.90;;;;;;5047588;28;20013;-72
2023/01/08 04:01:38;;;;;;;4.82;1.98;;;9.30;99.90;;;;;;5044291;28;20044;-72
2023/01/08 04:04:03;;;;;;;6.93;2.00;;;9.30;99.90;;;;;;5053115;28;20032;-72
2023/01/08 04:06:29;;;;;;;5.88;2.40;;;9.20;99.90;;;;;;5054115;28;20029;-72
2023/01/08 04:08:55;;;;;;;7.43;2.33;;;9.20;99.90;;;;;;5053059;28;20025;-73
2023/01/08 04:11:21;;;;;;;8.57;2.35;;;9.20;99.90;;;;;;5053791;28;20029;-71
2023/01/08 04:13:46;;;;;;;3.55;1.63;;;9.20;99.90;;;;;;5053692;28;20107;-72
2023/01/08 04:16:12;;;;;;;5.15;2.08;;;9.10;99.90;;;;;;5052818;28;20028;-72
2023/01/08 04:18:37;;;;;;;4.55;1.63;;;9.10;99.90;;;;;;5053897;28;20025;-71
2023/01/08 04:21:03;;;;;;;4.10;2.22;;;9.10;99.90;;;;;;5039134;28;20033;-72
2023/01/08 04:23:29;;;;;;;6.88;1.73;;;9.00;99.90;;;;;;5052423;28;20098;-74
2023/01/08 04:25:55;;;;;;;7.10;1.80;;;9.00;99.90;;;;;;5052581;28;20025;-72
2023/01/08 04:28:21;;;;;;;8.10;2.85;;;8.90;99.90;;;;;;5052234;28;20473;-71
2023/01/08 04:30:46;;;;;;;4.53;1.30;;;8.90;99.90;;;;;;5052912;28;20045;-72
2023/01/08 04:33:12;;;;;;;4.05;1.20;;;8.80;99.90;;;;;;5052676;28;20373;-72
2023/01/08 04:35:37;;;;;;;3.33;1.35;;;8.80;99.90;;;;;;5052208;28;20057;-71
2023/01/08 04:38:03;;;;;;;4.30;1.63;;;8.60;99.90;;;;;;5052288;28;20024;-72
2023/01/08 04:40:30;;;;;;;5.95;1.40;;;8.60;99.90;;;;;;5052663;28;20029;-72
2023/01/08 04:42:56;;;;;;;3.80;1.20;;;8.40;99.90;;;;;;5051204;28;20044;-71
2023/01/08 04:45:21;;;;;;;5.65;1.38;;;8.30;99.90;;;;;;5052608;28;20025;-72
2023/01/08 04:47:47;;;;;;;3.42;1.23;;;8.30;99.90;;;;;;5052691;28;20096;-72
2023/01/08 04:50:13;;;;;;;5.68;1.05;;;8.20;99.90;;;;;;5045792;28;20477;-73
2023/01/08 04:52:38;;;;;;;3.95;1.38;;;8.10;99.90;;;;;;5044638;28;20021;-72
2023/01/08 04:55:04;;;;;;;10.35;2.00;;;8.10;99.90;;;;;;5052075;28;20025;-72
2023/01/08 04:57:30;;;;;;;5.18;1.33;;;8.10;99.90;;;;;;5051707;28;20111;-71
2023/01/08 04:59:55;;;;;;;3.42;1.40;;;8.00;99.90;;;;;;5052256;28;20450;-72
2023/01/08 05:02:21;;;;;;;10.82;1.35;;;8.00;99.90;;;;;;5051384;28;20033;-72
2023/01/08 05:04:47;;;;;;;4.10;1.33;;;7.90;99.90;;;;;;5051819;28;20079;-72
2023/01/08 05:07:13;;;;;;;6.30;1.85;;;7.80;99.90;;;;;;5051924;28;20021;-72
2023/01/08 05:09:38;;;;;;;3.55;1.75;;;7.80;99.90;;;;;;5052301;28;20031;-71
2023/01/08 05:12:04;;;;;;;8.05;1.70;;;7.80;99.90;;;;;;5051261;28;20029;-71
2023/01/08 05:14:29;;;;;;;8.40;1.48;;;7.70;99.90;;;;;;5052583;28;20472;-72
2023/01/08 05:16:55;;;;;;;5.72;1.40;;;7.70;99.90;;;;;;5051851;28;20071;-73
2023/01/08 05:19:21;;;;;;;5.78;1.45;;;7.70;99.90;;;;;;5051225;28;20053;-72
2023/01/08 05:21:46;;;;;;;7.35;1.52;;;7.60;99.90;;;;;;5052040;28;20425;-71
2023/01/08 05:24:12;;;;;;;8.07;1.65;;;7.60;99.90;;;;;;5051598;28;20063;-71
2023/01/08 05:26:37;;;;;;;6.40;1.80;;;7.60;99.90;;;;;;5051263;28;20035;-72
2023/01/08 05:29:03;;;;;;;8.50;1.70;;;7.60;99.90;;;;;;5052296;28;20028;-72
2023/01/08 05:31:28;;;;;;;4.40;1.88;;;7.60;99.90;;;;;;5051638;28;20432;-72
2023/01/08 05:33:57;;;;;;;7.35;1.50;;;7.50;99.90;;;;;;5051497;28;20025;-71
2023/01/08 05:36:22;;;;;;;16.25;2.08;;;7.50;99.90;;;;;;5051537;28;20050;-71
2023/01/08 05:38:48;;;;;;;6.22;2.10;;;7.50;99.90;;;;;;5051147;28;20128;-72
2023/01/08 05:41:14;;;;;;;8.07;1.80;;;7.40;99.90;;;;;;5051248;28;20033;-72
2023/01/08 05:43:39;;;;;;;8.63;2.10;;;7.40;99.90;;;;;;5051718;28;20054;-72
2023/01/08 05:46:05;;;;;;;5.85;1.90;;;7.40;99.90;;;;;;5050938;28;20044;-72
2023/01/08 05:48:33;;;;;;;8.93;2.15;;;7.40;99.90;;;;;;5051885;28;20075;-71
2023/01/08 05:50:58;;;;;;;7.55;2.25;;;7.30;99.90;;;;;;5051504;28;20103;-71
2023/01/08 05:53:24;;;;;;;6.93;2.65;;;7.30;99.90;;;;;;5050805;28;20444;-71
2023/01/08 05:55:49;;;;;;;9.32;2.30;;;7.20;99.90;;;;;;5051491;28;20366;-71
2023/01/08 05:58:18;;;;;;;9.40;2.10;;;7.20;99.90;;;;;;5051486;28;20021;-72
2023/01/08 06:00:44;;;;;;;10.20;2.00;;;7.20;99.90;;;;;;5050806;28;20551;-71
2023/01/08 06:03:09;;;;;;;9.70;2.33;;;7.10;99.90;;;;;;5051278;28;20065;-71
2023/01/08 06:05:35;;;;;;;4.07;2.00;;;7.10;99.90;;;;;;5037527;28;20060;-72
2023/01/08 06:08:00;;;;;;;9.45;2.00;;;7.10;99.90;;;;;;5050639;28;20098;-71
2023/01/08 06:10:26;;;;;;;5.97;2.45;;;7.10;99.90;;;;;;5051394;28;20078;-71
2023/01/08 06:12:52;;;;;;;6.63;2.17;;;7.00;99.90;;;;;;5052948;28;20036;-72
2023/01/08 06:15:17;;;;;;;4.55;2.63;;;7.00;99.90;;;;;;5054560;28;20021;-72
2023/01/08 06:17:43;;;;;;;7.15;1.80;;;7.00;99.90;;;;;;5055487;28;20103;-71
2023/01/08 06:20:10;;;;;;;11.38;2.03;;;6.90;99.90;;;;;;5055255;28;20110;-72
2023/01/08 06:22:35;;;;;;;6.72;2.58;;;6.90;99.90;;;;;;5054435;28;20037;-72
2023/01/08 06:25:02;;;;;;;8.35;2.40;;;6.90;99.90;;;;;;5048685;28;20022;-71
2023/01/08 06:27:28;;;;;;;9.25;1.75;;;6.90;99.90;;;;;;5050640;28;20040;-72
2023/01/08 06:29:54;;;;;;;12.57;2.33;;;6.90;99.90;;;;;;5038055;28;20495;-72
2023/01/08 06:32:20;;;;;;;10.35;2.22;;;7.00;99.90;;;;;;5042877;28;20037;-73
2023/01/08 06:34:45;;;;;;;7.90;1.70;;;7.00;99.90;;;;;;5035196;28;20017;-71
2023/01/08 06:37:11;;;;;;;11.38;1.80;;;7.00;99.90;;;;;;5034296;28;20029;-72
2023/01/08 06:39:36;;;;;;;7.28;2.05;;;7.00;99.90;;;;;;5034176;28;20029;-72
2023/01/08 06:42:02;;;;;;;7.38;2.00;;;6.90;99.90;;;;;;5032911;28;20159;-72
2023/01/08 06:44:28;;;;;;;7.05;1.77;;;6.90;99.90;;;;;;5033793;28;20340;-72
2023/01/08 06:46:53;;;;;;;10.27;1.85;;;6.90;99.90;;;;;;5033345;28;20489;-72
2023/01/08 06:49:19;;;;;;;5.82;1.98;;;6.90;99.90;;;;;;5035842;28;20048;-72
2023/01/08 06:51:45;;;;;;;7.40;2.35;;;6.90;99.90;;;;;;5033358;28;20021;-72
2023/01/08 06:54:10;;;;;;;6.00;1.92;;;6.90;99.90;;;;;;5033250;28;20486;-73
2023/01/08 06:56:36;;;;;;;5.80;1.77;;;6.90;99.90;;;;;;5032250;28;20033;-72
2023/01/08 06:59:01;;;;;;;8.43;1.77;;;7.00;99.90;;;;;;5034484;28;20029;-72
2023/01/08 07:01:27;;;;;;;8.35;1.80;;;7.00;99.90;;;;;;5033312;28;20048;-72
2023/01/08 07:03:53;;;;;;;7.78;2.38;;;7.00;99.90;;;;;;5032356;28;20029;-73
2023/01/08 07:06:20;;;;;;;11.25;1.80;;;7.00;99.90;;;;;;5036556;28;20495;-73
2023/01/08 07:08:46;;;;;;;6.00;2.15;;;7.00;99.90;;;;;;5033665;28;20030;-72
2023/01/08 07:11:12;;;;;;;9.98;2.42;;;7.00;99.90;;;;;;5035365;28;20017;-73
2023/01/08 07:13:38;;;;;;;8.07;1.85;;;7.00;99.90;;;;;;5033331;28;20032;-72
2023/01/08 07:16:08;;;;;;;11.65;1.83;;;7.00;99.90;;;;;;5033005;28;20021;-72
2023/01/08 07:18:34;;;;;;;6.43;1.57;;;7.00;99.90;;;;;;5035233;28;20519;-72
2023/01/08 07:21:04;;;;;;;10.38;1.55;;;6.90;99.90;;;;;;5033368;28;20434;-72
2023/01/08 07:23:29;;;;;;;8.80;1.98;;;6.90;99.90;;;;;;5035754;28;20450;-71
2023/01/08 07:25:59;;;;;;;7.05;2.17;;;6.90;99.90;;;;;;5031789;28;20045;-71
2023/01/08 07:28:25;;;;;;;6.47;1.23;;;6.90;99.90;;;;;;5033396;28;20156;-71
2023/01/08 07:30:50;;;;;;;6.88;1.75;;;6.90;99.90;;;;;;5032511;28;20284;-71
2023/01/08 07:33:16;;;;;;;12.75;2.00;;;6.90;99.90;;;;;;5032397;28;20128;-72
2023/01/08 07:35:41;;;;;;;11.07;1.70;;;6.90;99.90;;;;;;5038192;28;20025;-73
2023/01/08 07:38:07;;;;;;;9.68;1.70;;;6.90;99.90;;;;;;5038851;28;20028;-72
2023/01/08 07:40:33;;;;;;;7.88;1.98;;;6.90;99.90;;;;;;5040191;28;20055;-73
2023/01/08 07:43:03;;;;;;;6.70;1.35;;;6.90;99.90;;;;;;5039171;28;20041;-72
2023/01/08 07:45:30;;;;;;;11.50;1.60;;;6.90;99.90;;;;;;5033639;28;20068;-72
2023/01/08 07:47:57;;;;;;;9.45;1.50;;;6.90;99.90;;;;;;5037211;28;20064;-72
2023/01/08 07:50:22;;;;;;;15.88;1.98;;;6.90;99.90;;;;;;5033728;28;20038;-73
2023/01/08 07:52:48;;;;;;;10.82;1.63;;;6.90;99.90;;;;;;5035382;28;20104;-73
2023/01/08 07:55:14;;;;;;;8.77;1.40;;;6.90;99.90;;;;;;5032507;28;20022;-72
2023/01/08 07:57:39;;;;;;;6.65;1.55;;;6.90;99.90;;;;;;5041417;28;20040;-72
2023/01/08 08:00:06;;;;;;;14.57;1.70;;;7.00;99.90;;;;;;5053288;28;20473;-72
2023/01/08 08:02:33;;;;;;;7.95;1.77;;;6.80;99.90;;;;;;5037879;28;20041;-70
2023/01/08 08:04:58;;;;;;;12.30;1.70;;;6.90;99.90;;;;;;5049888;28;20132;-72
2023/01/08 08:07:24;;;;;;;14.43;1.70;;;6.90;99.90;;;;;;5046027;28;20032;-73
2023/01/08 08:09:49;;;;;;;8.45;1.60;;;6.80;99.90;;;;;;5049895;28;20025;-72
2023/01/08 08:12:15;;;;;;;13.13;2.13;;;6.80;99.90;;;;;;5038481;28;20219;-72
2023/01/08 08:14:41;;;;;;;5.10;1.30;;;6.80;99.90;;;;;;5036923;28;20103;-73
2023/01/08 08:17:06;;;;;;;8.23;1.33;;;6.90;99.90;;;;;;5048424;28;20051;-72
2023/01/08 08:19:32;;;;;;;6.53;1.30;;;6.90;99.90;;;;;;5046281;28;20326;-73
2023/01/08 08:21:57;;;;;;;7.38;1.75;;;6.90;99.90;;;;;;5046618;28;20033;-73
2023/01/08 08:24:23;;;;;;;14.68;1.50;;;6.90;99.90;;;;;;5046770;28;20030;-73
2023/01/08 08:26:49;;;;;;;6.70;1.65;;;6.90;99.90;;;;;;5049114;28;20465;-73
2023/01/08 08:29:15;;;;;;;8.43;1.60;;;7.00;99.90;;;;;;5044175;28;20028;-72
2023/01/08 08:31:41;;;;;;;8.95;1.52;;;7.00;99.90;;;;;;5048952;28;20049;-72
2023/01/08 08:34:07;;;;;;;9.65;1.65;;;7.00;99.90;;;;;;5046745;28;20100;-72
2023/01/08 08:36:32;;;;;;;12.65;1.90;;;7.00;99.90;;;;;;5045365;28;20117;-72
2023/01/08 08:38:58;;;;;;;7.15;1.60;;;6.90;99.90;;;;;;5041102;28;20025;-73
2023/01/08 08:41:23;;;;;;;8.60;1.65;;;6.90;99.90;;;;;;5045930;28;20033;-73
2023/01/08 08:43:50;;;;;;;7.43;1.63;;;6.90;99.90;;;;;;5046229;28;20025;-73
2023/01/08 08:46:16;;;;;;;6.47;1.20;;;6.90;99.90;;;;;;5047293;28;20354;-73
2023/01/08 08:48:44;;;;;;;8.38;1.40;;;6.90;99.90;;;;;;5046321;28;20463;-72
2023/01/08 08:51:10;;;;;;;9.00;1.85;;;6.90;99.90;;;;;;5045721;28;20033;-72
2023/01/08 08:53:36;;;;;;;10.20;1.50;;;6.90;99.90;;;;;;5045425;28;20377;-72
2023/01/08 08:56:02;;;;;;;10.75;1.13;;;6.90;99.90;;;;;;5046378;28;20025;-71
2023/01/08 08:58:27;;;;;;;6.35;1.33;;;7.00;99.90;;;;;;5051390;28;20112;-72
2023/01/08 09:00:53;;;;;;;9.43;1.60;;;6.90;99.90;;;;;;5049104;28;20489;-73
2023/01/08 09:03:18;;;;;;;13.27;1.88;;;6.90;99.90;;;;;;5051283;28;20021;-72
2023/01/08 09:05:44;;;;;;;19.00;3.33;;;7.00;99.90;;;;;;5051966;28;20075;-72
2023/01/08 09:08:10;;;;;;;19.63;1.90;;;7.00;99.90;;;;;;5051592;28;20033;-73
2023/01/08 09:10:38;;;;;;;9.20;1.63;;;7.10;99.90;;;;;;5051504;28;20024;-72
2023/01/08 09:13:04;;;;;;;10.48;1.80;;;7.10;99.90;;;;;;5051275;28;20527;-73
2023/01/08 09:15:29;;;;;;;14.27;1.90;;;7.10;99.90;;;;;;5049336;28;20125;-71
2023/01/08 09:17:56;;;;;;;13.20;2.10;;;7.20;99.90;;;;;;5037281;28;20013;-72
2023/01/08 09:20:23;;;;;;;11.48;1.33;;;7.30;99.90;;;;;;5039582;28;20151;-73
2023/01/08 09:22:49;;;;;;;10.40;1.65;;;7.40;99.90;;;;;;5046406;28;20079;-72
2023/01/08 09:25:15;;;;;;;8.50;2.05;;;7.30;99.90;;;;;;5038140;28;20017;-72
2023/01/08 09:27:40;;;;;;;7.07;1.48;;;7.40;99.90;;;;;;5038486;28;20033;-72
2023/01/08 09:30:07;;;;;;;9.13;1.92;;;7.50;99.90;;;;;;5037089;28;20057;-73
2023/01/08 09:32:32;;;;;;;10.73;1.80;;;7.60;99.90;;;;;;5035706;28;20382;-74
2023/01/08 09:34:58;;;;;;;14.95;2.28;;;7.70;99.90;;;;;;5046268;28;20021;-72
2023/01/08 09:37:23;;;;;;;12.20;1.95;;;7.70;99.90;;;;;;5046005;28;20044;-71
2023/01/08 09:39:49;;;;;;;7.50;1.85;;;7.80;99.90;;;;;;5032341;28;20465;-72
2023/01/08 09:42:17;;;;;;;6.90;1.38;;;7.80;99.90;;;;;;5030730;28;20025;-71
2023/01/08 09:44:44;;;;;;;11.02;1.55;;;7.80;99.90;;;;;;5032382;28;20029;-72
2023/01/08 09:47:28;;;;;;;10.30;1.40;;;7.80;99.90;;;;;;5031198;28;20029;-72
2023/01/08 09:49:59;;;;;;;7.00;1.50;;;7.90;99.90;;;;;;5037655;28;20096;-72
2023/01/08 09:52:25;;;;;;;;;;;8.00;99.90;;;;;;5045590;28;20540;-72
2023/01/08 09:54:51;;;;;;;4.60;1.60;;;8.00;99.90;;;;;;5044038;28;19955;-73
2023/01/08 09:57:19;;;;;;;15.60;1.95;;;8.00;99.90;;;;;;5038461;28;20493;-70
2023/01/08 09:59:48;;;;;;;10.07;1.60;;;8.10;99.90;;;;;;5048475;28;20029;-71
2023/01/08 10:02:20;;;;;;;14.52;2.92;;;8.20;99.90;;;;;;5057697;28;20033;-71
2023/01/08 10:04:56;;;;;;;17.42;2.20;;;8.20;99.90;;;;;;5058221;28;20032;-72
2023/01/08 10:07:24;;;;;;;6.88;1.95;;;8.20;99.90;;;;;;5057491;28;20029;-70
2023/01/08 10:09:51;;;;;;;6.15;1.60;;;8.20;99.90;;;;;;5057942;28;20191;-70
2023/01/08 10:12:24;;;;;;;13.50;2.33;;;8.20;99.90;;;;;;5058450;28;20029;-72
2023/01/08 10:14:50;;;;;;;9.30;2.15;;;8.30;99.90;;;;;;5057771;28;20053;-72
2023/01/08 10:17:37;;;;;;;9.07;2.05;;;8.30;99.90;;;;;;5058575;28;20139;-72
2023/01/08 10:20:19;;;;;;;7.05;1.55;;;8.40;99.90;;;;;;5057537;28;20070;-72
2023/01/08 10:22:46;;;;;;;7.97;2.15;;;8.40;99.90;;;;;;5057790;28;20033;-72
2023/01/08 10:25:18;;;;;;;8.98;1.80;;;8.50;99.90;;;;;;5043119;28;20025;-74
2023/01/08 10:27:48;;;;;;;8.30;1.70;;;8.50;99.90;;;;;;5041014;28;20052;-74
2023/01/08 10:30:15;;;;;;;9.55;1.80;;;8.60;99.90;;;;;;5049591;28;20063;-73
2023/01/08 10:32:47;;;;;;;10.05;1.95;;;8.70;99.90;;;;;;5043582;28;20064;-74
2023/01/08 10:35:20;;;;;;;5.72;1.50;;;8.80;99.90;;;;;;5053055;28;20056;-73
2023/01/08 10:37:49;;;;;;;12.52;2.42;;;8.80;99.90;;;;;;5052192;28;20064;-73
2023/01/08 10:40:29;;;;;;;9.52;1.92;;;8.90;99.90;;;;;;5059549;28;20021;-75
2023/01/08 10:43:04;;;;;;;6.75;1.85;;;8.90;99.90;;;;;;5057551;28;20044;-73
2023/01/08 10:45:30;;;;;;;11.23;2.30;;;8.90;99.90;;;;;;5053361;28;20037;-75
2023/01/08 10:47:59;;;;;;;6.40;2.13;;;8.90;99.90;;;;;;5044737;28;20025;-73
2023/01/08 10:50:31;;;;;;;7.35;2.22;;;9.00;99.90;;;;;;5055339;28;20090;-74
2023/01/08 10:53:01;;;;;;;7.50;2.33;;;9.10;99.90;;;;;;5055729;28;21100;-73
2023/01/08 10:55:28;;;;;;;;;;;9.10;99.90;;;;;;5055432;28;20417;-74
2023/01/08 10:58:03;;;;;;;9.30;2.40;;;9.10;99.90;;;;;;5054144;28;20353;-74
2023/01/08 11:00:31;;;;;;;4.10;1.88;;;9.20;99.90;;;;;;5053903;28;20028;-74
2023/01/08 11:03:01;;;;;;;6.70;1.65;;;9.20;99.90;;;;;;5060035;28;20044;-75
2023/01/08 11:05:37;;;;;;;5.28;1.73;;;9.20;99.90;;;;;;5059720;28;20017;-75
2023/01/08 11:08:15;;;;;;;5.22;1.73;;;9.30;99.90;;;;;;5054367;28;20032;-74
2023/01/08 11:10:41;;;;;;;10.70;1.92;;;9.30;99.90;;;;;;5053782;28;20063;-73
2023/01/08 11:13:07;;;;;;;11.98;2.85;;;9.30;99.90;;;;;;5044648;28;20068;-73
2023/01/08 11:15:39;;;;;;;9.95;2.97;;;9.30;99.90;;;;;;5033034;28;20486;-72
2023/01/08 11:18:24;;;;;;;8.55;1.63;;;9.30;99.90;;;;;;5033380;28;20532;-74
2023/01/08 11:20:52;;;;;;;4.40;1.80;;;9.40;99.90;;;;;;5033722;28;20524;-74
2023/01/08 11:23:23;;;;;;;8.25;1.75;;;9.40;99.90;;;;;;5033367;28;20551;-73
2023/01/08 11:26:14;;;;;;;6.50;2.15;;;9.50;99.90;;;;;;5034144;28;20029;-73
2023/01/08 11:29:05;;;;;;;9.38;1.85;;;9.50;99.90;;;;;;5041714;28;20565;-74
2023/01/08 11:32:08;;;;;;;5.50;1.95;;;9.70;99.90;;;;;;5048593;28;20053;-75
2023/01/08 11:34:37;;;;;;;6.97;1.55;;;9.70;99.90;;;;;;5027266;28;20116;-73
2023/01/08 11:37:40;;;;;;;6.50;1.60;;;9.70;99.90;;;;;;5043504;28;20059;-74
2023/01/08 11:40:17;;;;;;;6.90;1.73;;;9.70;99.90;;;;;;5032626;28;20069;-74
2023/01/08 11:43:20;;;;;;;5.03;1.70;;;9.80;99.90;;;;;;5052994;28;20037;-74
2023/01/08 11:46:03;;;;;;;4.63;1.70;;;9.90;99.90;;;;;;5049048;28;20025;-73
2023/01/08 11:48:43;;;;;;;9.07;2.05;;;9.90;99.90;;;;;;5045653;28;20025;-73
2023/01/08 11:51:33;;;;;;;4.13;1.75;;;10.00;99.90;;;;;;5054001;28;20021;-74
2023/01/08 11:54:22;;;;;;;5.63;1.70;;;10.10;99.90;;;;;;5049980;28;20079;-74
2023/01/08 11:56:54;;;;;;;6.55;1.77;;;10.10;99.90;;;;;;5044899;28;20036;-74
2023/01/08 11:59:45;;;;;;;3.95;1.65;;;10.00;99.90;;;;;;5041616;28;20544;-74
2023/01/08 12:02:29;;;;;;;5.10;1.80;;;10.10;99.90;;;;;;5046587;28;20044;-73
2023/01/08 12:05:04;;;;;;;4.63;1.63;;;10.10;99.90;;;;;;5043556;28;20492;-73
2023/01/08 12:07:51;;;;;;;7.13;2.03;;;10.10;99.90;;;;;;5046150;28;20740;-73
2023/01/08 12:10:29;;;;;;;7.15;1.67;;;10.10;99.90;;;;;;5047643;28;20554;-73
2023/01/08 12:13:06;;;;;;;6.47;1.70;;;10.00;99.90;;;;;;5041852;28;20025;-73
2023/01/08 12:16:03;;;;;;;3.58;1.70;;;10.00;99.90;;;;;;5049132;28;20032;-74
2023/01/08 12:18:31;;;;;;;4.55;1.60;;;10.00;99.90;;;;;;5043165;28;20033;-73
2023/01/08 12:21:29;;;;;;;3.13;1.58;;;9.90;99.90;;;;;;5045060;28;20021;-73
2023/01/08 12:24:22;;;;;;;3.72;1.52;;;10.00;99.90;;;;;;5047534;28;20032;-73
2023/01/08 12:27:16;;;;;;;3.25;1.30;;;10.00;99.90;;;;;;5044830;28;20392;-73
2023/01/08 12:30:00;;;;;;;3.88;1.30;;;10.00;99.90;;;;;;5048830;28;20108;-73
2023/01/08 12:32:36;;;;;;;4.20;1.42;;;10.00;99.90;;;;;;5033871;28;20065;-73
2023/01/08 12:35:10;;;;;;;5.50;1.38;;;10.10;99.90;;;;;;5032213;28;20029;-72
2023/01/08 12:37:50;;;;;;;2.58;1.10;;;10.10;99.90;;;;;;5035122;28;20028;-72
2023/01/08 12:40:22;;;;;;;6.05;1.35;;;10.10;99.90;;;;;;5041152;28;20025;-73
2023/01/08 12:42:48;;;;;;;3.88;1.23;;;10.10;99.90;;;;;;5059601;28;20048;-72
2023/01/08 12:45:31;;;;;;;8.18;1.42;;;10.20;99.90;;;;;;5048493;28;20027;-73
2023/01/08 12:48:07;;;;;;;11.13;1.50;;;10.20;99.90;;;;;;5043284;28;20179;-74
2023/01/08 12:50:51;;;;;;;4.07;1.20;;;10.30;99.90;;;;;;5032716;28;20100;-74
2023/01/08 12:53:42;;;;;;;5.60;1.35;;;10.30;99.90;;;;;;5032620;28;20508;-74
2023/01/08 12:56:24;;;;;;;4.10;1.33;;;10.40;99.90;;;;;;5031301;28;20017;-73
2023/01/08 12:59:34;;;;;;;5.03;1.35;;;10.40;99.90;;;;;;5034586;28;20373;-73
2023/01/08 13:02:06;;;;;;;8.43;1.77;;;10.40;99.90;;;;;;5038276;28;20084;-73
2023/01/08 13:04:42;;;;;;;3.75;1.05;;;10.40;99.90;;;;;;5044260;28;20060;-73
2023/01/08 13:07:22;;;;;;;3.70;1.05;;;10.40;99.90;;;;;;5037066;28;20064;-72
2023/01/08 13:09:55;;;;;;;10.95;1.15;;;10.50;99.90;;;;;;5051465;28;20032;-73
2023/01/08 13:12:33;;;;;;;4.68;1.20;;;10.60;99.90;;;;;;5049513;28;20436;-73